Time,TemperatureF,DewpointF,PressureIn,WindDirection,WindDirectionDegrees,WindSpeedMPH,WindSpeedGustMPH,Humidity,HourlyPrecipIn,Conditions,Clouds,dailyrainin,SoftwareType,DateUTC
2013-06-14 00:02:00,64.4,52.3,30.06,North,0,4.0,5.0,65,0.00,,,0.00,meteohub,2013-06-14 05:02:00,
2013-06-14 00:07:00,64.4,52.3,30.06,North,0,4.0,5.0,65,0.00,,,0.00,meteohub,2013-06-14 05:07:00,
2013-06-14 00:12:00,64.2,52.7,30.06,NE,45,6.0,6.0,66,0.00,,,0.00,meteohub,2013-06-14 05:12:00,
2013-06-14 00:17:00,64.0,52.9,30.06,NE,45,10.0,10.0,67,0.00,,,0.00,meteohub,2013-06-14 05:17:00,
2013-06-14 00:22:00,63.7,52.9,30.06,NE,45,9.0,10.0,68,0.00,,,0.00,meteohub,2013-06-14 05:22:00,
2013-06-14 00:27:00,63.3,53.1,30.06,NE,45,9.0,10.0,69,0.00,,,0.00,meteohub,2013-06-14 05:27:00,
2013-06-14 00:32:00,62.6,52.7,30.06,NE,45,7.0,10.0,70,0.00,,,0.00,meteohub,2013-06-14 05:32:00,
2013-06-14 00:37:00,62.1,52.9,30.07,NE,45,8.0,10.0,72,0.00,,,0.00,meteohub,2013-06-14 05:37:00,
2013-06-14 00:42:00,61.5,53.2,30.07,NE,45,9.0,9.0,74,0.00,,,0.00,meteohub,2013-06-14 05:42:00,
2013-06-14 00:47:00,61.3,53.4,30.07,NE,45,8.0,10.0,75,0.00,,,0.00,meteohub,2013-06-14 05:47:00,
2013-06-14 00:52:00,61.0,53.4,30.08,NE,45,8.0,10.0,76,0.00,,,0.00,meteohub,2013-06-14 05:52:00,
2013-06-14 00:57:00,61.0,54.5,30.08,East,90,9.0,11.0,79,0.00,,,0.00,meteohub,2013-06-14 05:57:00,
2013-06-14 01:02:00,60.8,54.3,30.08,East,90,9.0,11.0,79,0.00,,,0.00,meteohub,2013-06-14 06:02:00,
2013-06-14 01:07:00,60.8,54.3,30.08,East,90,9.0,11.0,79,0.00,,,0.00,meteohub,2013-06-14 06:07:00,
2013-06-14 01:12:00,60.1,54.3,30.07,SE,135,6.0,11.0,81,0.00,,,0.00,meteohub,2013-06-14 06:12:00,
2013-06-14 01:17:00,59.9,54.3,30.09,East,90,7.0,9.0,82,0.00,,,0.00,meteohub,2013-06-14 06:17:00,
2013-06-14 01:22:00,59.9,54.7,30.08,East,90,7.0,9.0,83,0.00,,,0.00,meteohub,2013-06-14 06:22:00,
2013-06-14 01:27:00,59.7,54.5,30.08,East,90,4.0,8.0,83,0.00,,,0.00,meteohub,2013-06-14 06:27:00,
2013-06-14 01:32:00,59.5,54.3,30.08,East,90,3.0,8.0,83,0.00,,,0.00,meteohub,2013-06-14 06:32:00,
2013-06-14 01:37:00,59.2,54.0,30.08,NE,45,2.0,7.0,83,0.00,,,0.00,meteohub,2013-06-14 06:37:00,
2013-06-14 01:42:00,59.2,54.0,30.08,East,90,2.0,5.0,83,0.00,,,0.00,meteohub,2013-06-14 06:42:00,
2013-06-14 01:47:00,59.2,54.3,30.09,SE,135,4.0,4.0,84,0.00,,,0.00,meteohub,2013-06-14 06:47:00,
2013-06-14 01:52:00,59.0,54.1,30.09,ESE,113,4.0,4.0,84,0.00,,,0.00,meteohub,2013-06-14 06:52:00,
2013-06-14 01:57:00,58.8,54.0,30.09,SE,135,2.0,4.0,84,0.00,,,0.00,meteohub,2013-06-14 06:57:00,
2013-06-14 02:02:00,58.6,53.4,30.09,East,90,2.0,4.0,83,0.00,,,0.00,meteohub,2013-06-14 07:02:00,
2013-06-14 02:07:00,58.5,53.6,30.09,SE,135,2.0,4.0,84,0.00,,,0.00,meteohub,2013-06-14 07:07:00,
2013-06-14 02:12:00,58.5,53.6,30.10,East,90,2.0,4.0,84,0.00,,,0.00,meteohub,2013-06-14 07:12:00,
2013-06-14 02:17:00,58.3,53.4,30.09,East,90,2.0,4.0,84,0.00,,,0.00,meteohub,2013-06-14 07:17:00,
2013-06-14 02:22:00,57.9,53.1,30.09,East,90,2.0,4.0,84,0.00,,,0.00,meteohub,2013-06-14 07:22:00,
2013-06-14 02:27:00,57.9,53.4,30.09,East,90,2.0,2.0,85,0.00,,,0.00,meteohub,2013-06-14 07:27:00,
2013-06-14 02:32:00,57.9,53.4,30.09,East,90,0.0,2.0,85,0.00,,,0.00,meteohub,2013-06-14 07:32:00,
2013-06-14 02:37:00,57.7,53.2,30.09,SE,135,2.0,2.0,85,0.00,,,0.00,meteohub,2013-06-14 07:37:00,
2013-06-14 02:42:00,57.6,53.1,30.09,NE,45,2.0,2.0,85,0.00,,,0.00,meteohub,2013-06-14 07:42:00,
2013-06-14 02:47:00,57.4,53.2,30.09,East,90,4.0,4.0,86,0.00,,,0.00,meteohub,2013-06-14 07:47:00,
2013-06-14 02:52:00,57.2,53.1,30.09,East,90,3.0,4.0,86,0.00,,,0.00,meteohub,2013-06-14 07:52:00,
2013-06-14 02:57:00,57.2,53.1,30.09,East,90,2.0,4.0,86,0.00,,,0.00,meteohub,2013-06-14 07:57:00,
2013-06-14 03:02:00,56.8,53.1,30.09,East,90,2.0,4.0,87,0.00,,,0.00,meteohub,2013-06-14 08:02:00,
2013-06-14 03:07:00,56.8,53.1,30.10,East,90,2.0,3.0,87,0.00,,,0.00,meteohub,2013-06-14 08:07:00,
2013-06-14 03:12:00,56.3,52.5,30.10,East,90,3.0,3.0,87,0.00,,,0.00,meteohub,2013-06-14 08:12:00,
2013-06-14 03:17:00,56.1,52.3,30.10,East,90,4.0,4.0,87,0.00,,,0.00,meteohub,2013-06-14 08:17:00,
2013-06-14 03:22:00,56.1,52.0,30.10,ESE,113,4.0,4.0,86,0.00,,,0.00,meteohub,2013-06-14 08:22:00,
2013-06-14 03:27:00,56.1,52.0,30.11,East,90,2.0,4.0,86,0.00,,,0.00,meteohub,2013-06-14 08:27:00,
2013-06-14 03:32:00,55.8,51.3,30.10,SE,135,0.0,4.0,85,0.00,,,0.00,meteohub,2013-06-14 08:32:00,
2013-06-14 03:37:00,55.8,51.3,30.10,East,90,2.0,4.0,85,0.00,,,0.00,meteohub,2013-06-14 08:37:00,
2013-06-14 03:42:00,55.9,51.4,30.09,NE,45,4.0,4.0,85,0.00,,,0.00,meteohub,2013-06-14 08:42:00,
2013-06-14 03:47:00,55.4,50.7,30.08,East,90,7.0,7.0,84,0.00,,,0.00,meteohub,2013-06-14 08:47:00,
2013-06-14 03:52:00,54.7,50.2,30.08,NE,45,8.0,8.0,85,0.00,,,0.00,meteohub,2013-06-14 08:52:00,
2013-06-14 03:57:00,54.7,50.9,30.08,East,90,8.0,9.0,87,0.00,,,0.00,meteohub,2013-06-14 08:57:00,
2013-06-14 04:02:00,54.5,50.7,30.08,NE,45,8.0,9.0,87,0.00,,,0.00,meteohub,2013-06-14 09:02:00,
2013-06-14 04:07:00,54.5,50.7,30.08,NE,45,9.0,9.0,87,0.00,,,0.00,meteohub,2013-06-14 09:07:00,
2013-06-14 04:12:00,54.5,51.1,30.07,NE,45,11.0,11.0,88,0.00,,,0.00,meteohub,2013-06-14 09:12:00,
2013-06-14 04:17:00,54.5,51.1,30.07,NE,45,10.0,11.0,88,0.00,,,0.00,meteohub,2013-06-14 09:17:00,
2013-06-14 04:22:00,54.5,51.1,30.08,NE,45,10.0,11.0,88,0.00,,,0.00,meteohub,2013-06-14 09:22:00,
2013-06-14 04:27:00,54.3,50.9,30.08,NE,45,5.0,11.0,88,0.00,,,0.00,meteohub,2013-06-14 09:27:00,
2013-06-14 04:32:00,54.3,50.9,30.08,NE,45,5.0,10.0,88,0.00,,,0.00,meteohub,2013-06-14 09:32:00,
2013-06-14 04:37:00,54.3,50.9,30.08,ENE,68,4.0,10.0,88,0.00,,,0.00,meteohub,2013-06-14 09:37:00,
2013-06-14 04:42:00,54.5,51.1,30.08,East,90,4.0,7.0,88,0.00,,,0.00,meteohub,2013-06-14 09:42:00,
2013-06-14 04:47:00,54.9,51.1,30.08,East,90,7.0,7.0,87,0.00,,,0.00,meteohub,2013-06-14 09:47:00,
2013-06-14 04:52:00,55.0,50.9,30.08,NE,45,10.0,11.0,86,0.00,,,0.00,meteohub,2013-06-14 09:52:00,
2013-06-14 04:57:00,55.0,50.5,30.08,NE,45,7.0,11.0,85,0.00,,,0.00,meteohub,2013-06-14 09:57:00,
2013-06-14 05:02:00,55.0,50.5,30.09,ENE,68,4.0,11.0,85,0.00,,,0.00,meteohub,2013-06-14 10:02:00,
2013-06-14 05:07:00,55.0,50.5,30.09,ENE,68,4.0,10.0,85,0.00,,,0.00,meteohub,2013-06-14 10:07:00,
2013-06-14 05:12:00,55.0,50.5,30.08,East,90,5.0,8.0,85,0.00,,,0.00,meteohub,2013-06-14 10:12:00,
2013-06-14 05:17:00,55.0,50.4,30.08,NE,45,6.0,6.0,84,0.00,,,0.00,meteohub,2013-06-14 10:17:00,
2013-06-14 05:22:00,54.9,49.8,30.09,NE,45,4.0,6.0,83,0.00,,,0.00,meteohub,2013-06-14 10:22:00,
2013-06-14 05:27:00,54.7,49.6,30.09,East,90,3.0,6.0,83,0.00,,,0.00,meteohub,2013-06-14 10:27:00,
2013-06-14 05:32:00,54.9,50.2,30.10,NE,45,2.0,6.0,84,0.00,,,0.00,meteohub,2013-06-14 10:32:00,
2013-06-14 05:37:00,55.0,50.0,30.10,WSW,248,2.0,5.0,83,0.00,,,0.00,meteohub,2013-06-14 10:37:00,
2013-06-14 05:42:00,55.0,50.0,30.10,West,270,4.0,4.0,83,0.00,,,0.00,meteohub,2013-06-14 10:42:00,
2013-06-14 05:47:00,55.0,50.0,30.10,NW,315,2.0,4.0,83,0.00,,,0.00,meteohub,2013-06-14 10:47:00,
2013-06-14 05:52:00,55.6,50.9,30.10,NE,45,3.0,4.0,84,0.00,,,0.00,meteohub,2013-06-14 10:52:00,
2013-06-14 05:57:00,56.3,51.3,30.11,NE,45,2.0,4.0,83,0.00,,,0.00,meteohub,2013-06-14 10:57:00,
2013-06-14 06:02:00,56.8,51.4,30.10,NE,45,2.0,4.0,82,0.00,,,0.00,meteohub,2013-06-14 11:02:00,
2013-06-14 06:07:00,57.6,51.8,30.11,NE,45,0.0,4.0,81,0.00,,,0.00,meteohub,2013-06-14 11:07:00,
2013-06-14 06:12:00,57.4,50.9,30.11,NW,315,2.0,2.0,79,0.00,,,0.00,meteohub,2013-06-14 11:12:00,
2013-06-14 06:17:00,57.2,50.7,30.11,NW,315,2.0,2.0,79,0.00,,,0.00,meteohub,2013-06-14 11:17:00,
2013-06-14 06:22:00,57.4,50.9,30.11,NW,315,2.0,2.0,79,0.00,,,0.00,meteohub,2013-06-14 11:22:00,
2013-06-14 06:27:00,57.7,51.3,30.12,West,270,2.0,2.0,79,0.00,,,0.00,meteohub,2013-06-14 11:27:00,
2013-06-14 06:32:00,57.9,51.4,30.12,West,270,2.0,3.0,79,0.00,,,0.00,meteohub,2013-06-14 11:32:00,
2013-06-14 06:37:00,57.9,51.4,30.12,NW,315,2.0,3.0,79,0.00,,,0.00,meteohub,2013-06-14 11:37:00,
2013-06-14 06:42:00,58.3,51.8,30.12,North,0,1.0,3.0,79,0.00,,,0.00,meteohub,2013-06-14 11:42:00,
2013-06-14 06:47:00,58.8,52.3,30.12,West,270,2.0,3.0,79,0.00,,,0.00,meteohub,2013-06-14 11:47:00,
2013-06-14 06:52:00,59.4,52.9,30.12,NW,315,2.0,2.0,79,0.00,,,0.00,meteohub,2013-06-14 11:52:00,
2013-06-14 06:57:00,59.7,52.9,30.12,NE,45,2.0,2.0,78,0.00,,,0.00,meteohub,2013-06-14 11:57:00,
2013-06-14 07:02:00,60.4,53.2,30.12,SE,135,2.0,2.0,77,0.00,,,0.00,meteohub,2013-06-14 12:02:00,
2013-06-14 07:07:00,61.0,53.4,30.13,SE,135,0.0,2.0,76,0.00,,,0.00,meteohub,2013-06-14 12:07:00,
2013-06-14 07:12:00,61.3,53.4,30.12,South,180,2.0,2.0,75,0.00,,,0.00,meteohub,2013-06-14 12:12:00,
2013-06-14 07:17:00,61.2,53.2,30.13,West,270,2.0,2.0,75,0.00,,,0.00,meteohub,2013-06-14 12:17:00,
2013-06-14 07:22:00,60.8,52.2,30.13,North,0,1.0,2.0,73,0.00,,,0.00,meteohub,2013-06-14 12:22:00,
2013-06-14 07:27:00,61.0,52.7,30.14,East,90,2.0,2.0,74,0.00,,,0.00,meteohub,2013-06-14 12:27:00,
2013-06-14 07:32:00,61.5,52.3,30.13,East,90,4.0,4.0,72,0.00,,,0.00,meteohub,2013-06-14 12:32:00,
2013-06-14 07:37:00,61.9,52.0,30.14,NE,45,3.0,4.0,70,0.00,,,0.00,meteohub,2013-06-14 12:37:00,
2013-06-14 07:42:00,61.7,51.1,30.14,East,90,3.0,4.0,68,0.00,,,0.00,meteohub,2013-06-14 12:42:00,
2013-06-14 07:47:00,61.7,51.4,30.14,NE,45,3.0,4.0,69,0.00,,,0.00,meteohub,2013-06-14 12:47:00,
2013-06-14 07:52:00,62.1,50.2,30.15,North,0,2.0,4.0,65,0.00,,,0.00,meteohub,2013-06-14 12:52:00,
2013-06-14 07:57:00,62.8,50.9,30.14,East,90,2.0,4.0,65,0.00,,,0.00,meteohub,2013-06-14 12:57:00,
2013-06-14 08:02:00,63.7,51.3,30.15,South,180,2.0,4.0,64,0.00,,,0.00,meteohub,2013-06-14 13:02:00,
2013-06-14 08:07:00,64.4,51.1,30.15,South,180,2.0,4.0,62,0.00,,,0.00,meteohub,2013-06-14 13:07:00,
2013-06-14 08:12:00,65.3,51.4,30.15,NE,45,4.0,4.0,61,0.00,,,0.00,meteohub,2013-06-14 13:12:00,
2013-06-14 08:17:00,65.7,50.9,30.14,NE,45,4.0,4.0,59,0.00,,,0.00,meteohub,2013-06-14 13:17:00,
2013-06-14 08:22:00,65.7,52.3,30.14,NE,45,5.0,5.0,62,0.00,,,0.00,meteohub,2013-06-14 13:22:00,
2013-06-14 08:27:00,65.7,52.3,30.15,East,90,5.0,5.0,62,0.00,,,0.00,meteohub,2013-06-14 13:27:00,
2013-06-14 08:32:00,65.3,50.5,30.15,East,90,3.0,6.0,59,0.00,,,0.00,meteohub,2013-06-14 13:32:00,
2013-06-14 08:37:00,65.5,51.3,30.15,NE,45,4.0,6.0,60,0.00,,,0.00,meteohub,2013-06-14 13:37:00,
2013-06-14 08:42:00,65.3,51.1,30.15,NE,45,4.0,6.0,60,0.00,,,0.00,meteohub,2013-06-14 13:42:00,
2013-06-14 08:47:00,65.3,51.1,30.15,East,90,4.0,5.0,60,0.00,,,0.00,meteohub,2013-06-14 13:47:00,
2013-06-14 08:52:00,65.5,51.6,30.15,NE,45,1.0,5.0,61,0.00,,,0.00,meteohub,2013-06-14 13:52:00,
2013-06-14 08:57:00,65.5,51.6,30.14,East,90,3.0,5.0,61,0.00,,,0.00,meteohub,2013-06-14 13:57:00,
2013-06-14 09:02:00,65.8,52.5,30.14,SE,135,4.0,5.0,62,0.00,,,0.00,meteohub,2013-06-14 14:02:00,
2013-06-14 09:07:00,65.8,51.6,30.14,SE,135,5.0,7.0,60,0.00,,,0.00,meteohub,2013-06-14 14:07:00,
2013-06-14 09:12:00,66.0,52.2,30.14,ENE,68,6.0,7.0,61,0.00,,,0.00,meteohub,2013-06-14 14:12:00,
2013-06-14 09:17:00,66.6,53.1,30.14,ESE,113,4.0,7.0,62,0.00,,,0.00,meteohub,2013-06-14 14:17:00,
2013-06-14 09:22:00,66.9,53.1,30.13,SE,135,6.0,7.0,61,0.00,,,0.00,meteohub,2013-06-14 14:22:00,
2013-06-14 09:27:00,66.7,52.9,30.13,East,90,8.0,8.0,61,0.00,,,0.00,meteohub,2013-06-14 14:27:00,
2013-06-14 09:32:00,66.6,52.7,30.13,East,90,7.0,10.0,61,0.00,,,0.00,meteohub,2013-06-14 14:32:00,
2013-06-14 09:37:00,66.4,52.2,30.12,SE,135,10.0,10.0,60,0.00,,,0.00,meteohub,2013-06-14 14:37:00,
2013-06-14 09:42:00,66.4,52.2,30.12,East,90,9.0,11.0,60,0.00,,,0.00,meteohub,2013-06-14 14:42:00,
2013-06-14 09:47:00,66.6,53.1,30.12,East,90,11.0,11.0,62,0.00,,,0.00,meteohub,2013-06-14 14:47:00,
2013-06-14 09:52:00,66.9,53.1,30.11,East,90,11.0,11.0,61,0.00,,,0.00,meteohub,2013-06-14 14:52:00,
2013-06-14 09:57:00,66.7,52.3,30.11,SE,135,11.0,14.0,60,0.00,,,0.00,meteohub,2013-06-14 14:57:00,
2013-06-14 10:02:00,66.6,52.7,30.11,SE,135,13.0,14.0,61,0.00,,,0.00,meteohub,2013-06-14 15:02:00,
2013-06-14 10:07:00,67.1,53.6,30.12,SE,135,10.0,14.0,62,0.00,,,0.00,meteohub,2013-06-14 15:07:00,
2013-06-14 10:12:00,67.6,53.2,30.12,East,90,9.0,13.0,60,0.00,,,0.00,meteohub,2013-06-14 15:12:00,
2013-06-14 10:17:00,68.2,54.1,30.12,East,90,9.0,13.0,61,0.00,,,0.00,meteohub,2013-06-14 15:17:00,
2013-06-14 10:22:00,68.5,53.6,30.12,SE,135,8.0,12.0,59,0.00,,,0.00,meteohub,2013-06-14 15:22:00,
2013-06-14 10:27:00,68.2,52.9,30.12,SE,135,10.0,15.0,58,0.00,,,0.00,meteohub,2013-06-14 15:27:00,
2013-06-14 10:32:00,68.9,54.5,30.12,SE,135,8.0,15.0,60,0.00,,,0.00,meteohub,2013-06-14 15:32:00,
2013-06-14 10:37:00,69.6,54.1,30.12,East,90,10.0,15.0,58,0.00,,,0.00,meteohub,2013-06-14 15:37:00,
2013-06-14 10:42:00,69.8,54.9,30.12,South,180,9.0,13.0,59,0.00,,,0.00,meteohub,2013-06-14 15:42:00,
2013-06-14 10:47:00,70.0,55.0,30.12,SE,135,8.0,10.0,59,0.00,,,0.00,meteohub,2013-06-14 15:47:00,
2013-06-14 10:52:00,69.8,54.0,30.12,SE,135,8.0,13.0,57,0.00,,,0.00,meteohub,2013-06-14 15:52:00,
2013-06-14 10:57:00,70.0,54.5,30.11,East,90,8.0,13.0,58,0.00,,,0.00,meteohub,2013-06-14 15:57:00,
2013-06-14 11:02:00,70.3,54.0,30.11,South,180,7.0,13.0,56,0.00,,,0.00,meteohub,2013-06-14 16:02:00,
2013-06-14 11:07:00,70.7,55.6,30.11,SE,135,7.0,10.0,59,0.00,,,0.00,meteohub,2013-06-14 16:07:00,
2013-06-14 11:12:00,70.5,53.6,30.12,East,90,10.0,10.0,55,0.00,,,0.00,meteohub,2013-06-14 16:12:00,
2013-06-14 11:17:00,70.5,55.6,30.12,East,90,8.0,13.0,59,0.00,,,0.00,meteohub,2013-06-14 16:17:00,
2013-06-14 11:22:00,70.9,54.9,30.12,South,180,4.0,13.0,57,0.00,,,0.00,meteohub,2013-06-14 16:22:00,
2013-06-14 11:27:00,71.1,55.0,30.11,East,90,11.0,11.0,57,0.00,,,0.00,meteohub,2013-06-14 16:27:00,
2013-06-14 11:32:00,70.9,55.8,30.12,NE,45,8.0,11.0,59,0.00,,,0.00,meteohub,2013-06-14 16:32:00,
2013-06-14 11:37:00,71.1,54.5,30.12,East,90,9.0,16.0,56,0.00,,,0.00,meteohub,2013-06-14 16:37:00,
2013-06-14 11:42:00,71.2,54.7,30.12,NNE,23,7.0,16.0,56,0.00,,,0.00,meteohub,2013-06-14 16:42:00,
2013-06-14 11:47:00,71.6,54.1,30.11,East,90,8.0,16.0,54,0.00,,,0.00,meteohub,2013-06-14 16:47:00,
2013-06-14 11:52:00,71.6,54.1,30.12,East,90,9.0,10.0,54,0.00,,,0.00,meteohub,2013-06-14 16:52:00,
2013-06-14 11:57:00,71.6,54.1,30.12,East,90,4.0,10.0,54,0.00,,,0.00,meteohub,2013-06-14 16:57:00,
2013-06-14 12:02:00,71.8,54.3,30.12,South,180,4.0,10.0,54,0.00,,,0.00,meteohub,2013-06-14 17:02:00,
2013-06-14 12:07:00,72.3,55.2,30.12,SE,135,7.0,9.0,55,0.00,,,0.00,meteohub,2013-06-14 17:07:00,
2013-06-14 12:12:00,72.7,54.0,30.12,SW,225,3.0,8.0,52,0.00,,,0.00,meteohub,2013-06-14 17:12:00,
2013-06-14 12:17:00,72.5,54.3,30.12,East,90,4.0,8.0,53,0.00,,,0.00,meteohub,2013-06-14 17:17:00,
2013-06-14 12:22:00,72.5,54.0,30.12,SE,135,3.0,8.0,52,0.00,,,0.00,meteohub,2013-06-14 17:22:00,
2013-06-14 12:27:00,72.5,54.3,30.12,ESE,113,7.0,9.0,53,0.00,,,0.00,meteohub,2013-06-14 17:27:00,
2013-06-14 12:32:00,72.7,54.5,30.12,East,90,5.0,9.0,53,0.00,,,0.00,meteohub,2013-06-14 17:32:00,
2013-06-14 12:37:00,72.9,54.7,30.12,South,180,4.0,9.0,53,0.00,,,0.00,meteohub,2013-06-14 17:37:00,
2013-06-14 12:42:00,73.2,54.5,30.12,ESE,113,8.0,8.0,52,0.00,,,0.00,meteohub,2013-06-14 17:42:00,
2013-06-14 12:47:00,73.4,54.1,30.12,SE,135,8.0,11.0,51,0.00,,,0.00,meteohub,2013-06-14 17:47:00,
2013-06-14 12:52:00,73.6,55.4,30.11,SW,225,6.0,11.0,53,0.00,,,0.00,meteohub,2013-06-14 17:52:00,
2013-06-14 12:57:00,73.6,55.9,30.10,SE,135,7.0,10.0,54,0.00,,,0.00,meteohub,2013-06-14 17:57:00,
2013-06-14 13:02:00,73.9,53.6,30.10,South,180,13.0,13.0,49,0.00,,,0.00,meteohub,2013-06-14 18:02:00,
2013-06-14 13:07:00,73.4,52.0,30.10,SE,135,11.0,13.0,47,0.00,,,0.00,meteohub,2013-06-14 18:07:00,
2013-06-14 13:12:00,73.6,52.7,30.10,SE,135,8.0,13.0,48,0.00,,,0.00,meteohub,2013-06-14 18:12:00,
2013-06-14 13:17:00,73.8,52.9,30.10,SE,135,11.0,13.0,48,0.00,,,0.00,meteohub,2013-06-14 18:17:00,
2013-06-14 13:22:00,73.6,52.2,30.10,South,180,11.0,13.0,47,0.00,,,0.00,meteohub,2013-06-14 18:22:00,
2013-06-14 13:27:00,73.6,54.3,30.10,SE,135,11.0,13.0,51,0.00,,,0.00,meteohub,2013-06-14 18:27:00,
2013-06-14 13:32:00,73.6,54.3,30.10,WSW,248,14.0,14.0,51,0.00,,,0.00,meteohub,2013-06-14 18:32:00,
2013-06-14 13:37:00,73.6,54.9,30.10,South,180,6.0,14.0,52,0.00,,,0.00,meteohub,2013-06-14 18:37:00,
2013-06-14 13:42:00,74.3,56.1,30.10,SE,135,8.0,14.0,53,0.00,,,0.00,meteohub,2013-06-14 18:42:00,
2013-06-14 13:47:00,74.1,54.9,30.09,SE,135,11.0,14.0,51,0.00,,,0.00,meteohub,2013-06-14 18:47:00,
2013-06-14 13:52:00,74.3,55.6,30.09,South,180,6.0,13.0,52,0.00,,,0.00,meteohub,2013-06-14 18:52:00,
2013-06-14 13:57:00,74.5,55.8,30.09,SE,135,4.0,13.0,52,0.00,,,0.00,meteohub,2013-06-14 18:57:00,
2013-06-14 14:02:00,75.0,56.7,30.09,South,180,10.0,13.0,53,0.00,,,0.00,meteohub,2013-06-14 19:02:00,
2013-06-14 14:07:00,74.8,54.3,30.09,SE,135,7.0,12.0,49,0.00,,,0.00,meteohub,2013-06-14 19:07:00,
2013-06-14 14:12:00,74.8,53.8,30.08,South,180,10.0,12.0,48,0.00,,,0.00,meteohub,2013-06-14 19:12:00,
2013-06-14 14:17:00,74.8,55.0,30.08,ESE,113,4.0,12.0,50,0.00,,,0.00,meteohub,2013-06-14 19:17:00,
2013-06-14 14:22:00,75.0,54.5,30.08,SE,135,5.0,11.0,49,0.00,,,0.00,meteohub,2013-06-14 19:22:00,
2013-06-14 14:27:00,75.2,55.2,30.08,SSW,203,5.0,11.0,50,0.00,,,0.00,meteohub,2013-06-14 19:27:00,
2013-06-14 14:32:00,75.0,54.0,30.08,SE,135,12.0,12.0,48,0.00,,,0.00,meteohub,2013-06-14 19:32:00,
2013-06-14 14:37:00,74.8,53.2,30.08,South,180,11.0,13.0,47,0.00,,,0.00,meteohub,2013-06-14 19:37:00,
2013-06-14 14:42:00,74.8,54.3,30.08,SE,135,11.0,13.0,49,0.00,,,0.00,meteohub,2013-06-14 19:42:00,
2013-06-14 14:47:00,75.2,55.2,30.07,SE,135,8.0,12.0,50,0.00,,,0.00,meteohub,2013-06-14 19:47:00,
2013-06-14 14:52:00,75.6,55.6,30.07,South,180,5.0,11.0,50,0.00,,,0.00,meteohub,2013-06-14 19:52:00,
2013-06-14 14:57:00,75.7,53.4,30.07,South,180,9.0,12.0,46,0.00,,,0.00,meteohub,2013-06-14 19:57:00,
2013-06-14 15:02:00,75.9,53.1,30.07,East,90,4.0,12.0,45,0.00,,,0.00,meteohub,2013-06-14 20:02:00,
2013-06-14 15:07:00,75.9,52.5,30.07,WSW,248,11.0,12.0,44,0.00,,,0.00,meteohub,2013-06-14 20:07:00,
2013-06-14 15:12:00,76.1,53.2,30.07,SW,225,6.0,11.0,45,0.00,,,0.00,meteohub,2013-06-14 20:12:00,
2013-06-14 15:17:00,76.1,53.2,30.07,SSW,203,10.0,11.0,45,0.00,,,0.00,meteohub,2013-06-14 20:17:00,
2013-06-14 15:22:00,76.5,54.1,30.06,East,90,4.0,11.0,46,0.00,,,0.00,meteohub,2013-06-14 20:22:00,
2013-06-14 15:27:00,76.8,53.8,30.06,SE,135,8.0,11.0,45,0.00,,,0.00,meteohub,2013-06-14 20:27:00,
2013-06-14 15:32:00,76.5,54.7,30.06,SW,225,11.0,11.0,47,0.00,,,0.00,meteohub,2013-06-14 20:32:00,
2013-06-14 15:37:00,76.6,54.3,30.06,SSE,158,10.0,11.0,46,0.00,,,0.00,meteohub,2013-06-14 20:37:00,
2013-06-14 15:42:00,76.5,53.6,30.06,South,180,9.0,13.0,45,0.00,,,0.00,meteohub,2013-06-14 20:42:00,
2013-06-14 15:47:00,76.5,53.6,30.06,SE,135,10.0,15.0,45,0.00,,,0.00,meteohub,2013-06-14 20:47:00,
2013-06-14 15:52:00,76.6,54.3,30.04,South,180,7.0,15.0,46,0.00,,,0.00,meteohub,2013-06-14 20:52:00,
2013-06-14 15:57:00,76.5,53.6,30.04,SW,225,11.0,15.0,45,0.00,,,0.00,meteohub,2013-06-14 20:57:00,
2013-06-14 16:02:00,76.3,54.0,30.04,South,180,6.0,11.0,46,0.00,,,0.00,meteohub,2013-06-14 21:02:00,
2013-06-14 16:07:00,76.8,53.8,30.04,SE,135,9.0,11.0,45,0.00,,,0.00,meteohub,2013-06-14 21:07:00,
2013-06-14 16:12:00,77.0,53.4,30.03,South,180,12.0,12.0,44,0.00,,,0.00,meteohub,2013-06-14 21:12:00,
2013-06-14 16:17:00,77.0,54.0,30.03,SW,225,10.0,12.0,45,0.00,,,0.00,meteohub,2013-06-14 21:17:00,
2013-06-14 16:22:00,76.8,54.5,30.03,SE,135,7.0,12.0,46,0.00,,,0.00,meteohub,2013-06-14 21:22:00,
2013-06-14 16:27:00,77.0,54.7,30.03,SE,135,8.0,12.0,46,0.00,,,0.00,meteohub,2013-06-14 21:27:00,
2013-06-14 16:32:00,76.8,53.8,30.03,South,180,10.0,12.0,45,0.00,,,0.00,meteohub,2013-06-14 21:32:00,
2013-06-14 16:37:00,77.2,55.4,30.02,South,180,6.0,11.0,47,0.00,,,0.00,meteohub,2013-06-14 21:37:00,
2013-06-14 16:42:00,77.4,53.8,30.03,South,180,12.0,12.0,44,0.00,,,0.00,meteohub,2013-06-14 21:42:00,
2013-06-14 16:47:00,77.2,54.1,30.03,SE,135,13.0,14.0,45,0.00,,,0.00,meteohub,2013-06-14 21:47:00,
2013-06-14 16:52:00,77.2,54.1,30.03,SE,135,8.0,14.0,45,0.00,,,0.00,meteohub,2013-06-14 21:52:00,
2013-06-14 16:57:00,77.4,53.8,30.03,SW,225,11.0,14.0,44,0.00,,,0.00,meteohub,2013-06-14 21:57:00,
2013-06-14 17:02:00,77.2,52.9,30.02,South,180,11.0,13.0,43,0.00,,,0.00,meteohub,2013-06-14 22:02:00,
2013-06-14 17:07:00,76.6,52.5,30.02,South,180,8.0,11.0,43,0.00,,,0.00,meteohub,2013-06-14 22:07:00,
2013-06-14 17:12:00,76.6,53.8,30.02,SW,225,5.0,11.0,45,0.00,,,0.00,meteohub,2013-06-14 22:12:00,
2013-06-14 17:17:00,77.0,54.0,30.02,SE,135,4.0,11.0,45,0.00,,,0.00,meteohub,2013-06-14 22:17:00,
2013-06-14 17:22:00,77.2,53.6,30.02,SW,225,10.0,10.0,44,0.00,,,0.00,meteohub,2013-06-14 22:22:00,
2013-06-14 17:27:00,77.0,54.0,30.01,South,180,6.0,11.0,45,0.00,,,0.00,meteohub,2013-06-14 22:27:00,
2013-06-14 17:32:00,77.0,54.7,30.01,SE,135,6.0,11.0,46,0.00,,,0.00,meteohub,2013-06-14 22:32:00,
2013-06-14 17:37:00,76.8,55.0,30.01,SE,135,7.0,11.0,47,0.00,,,0.00,meteohub,2013-06-14 22:37:00,
2013-06-14 17:42:00,76.5,54.7,30.01,East,90,5.0,9.0,47,0.00,,,0.00,meteohub,2013-06-14 22:42:00,
2013-06-14 17:47:00,76.1,53.8,30.00,SE,135,9.0,9.0,46,0.00,,,0.00,meteohub,2013-06-14 22:47:00,
2013-06-14 17:52:00,75.7,52.9,30.01,SW,225,10.0,10.0,45,0.00,,,0.00,meteohub,2013-06-14 22:52:00,
2013-06-14 17:57:00,75.4,53.2,30.01,South,180,4.0,10.0,46,0.00,,,0.00,meteohub,2013-06-14 22:57:00,
2013-06-14 18:02:00,75.2,53.6,30.00,South,180,9.0,10.0,47,0.00,,,0.00,meteohub,2013-06-14 23:02:00,
2013-06-14 18:07:00,75.2,54.7,30.00,South,180,8.0,10.0,49,0.00,,,0.00,meteohub,2013-06-14 23:07:00,
2013-06-14 18:12:00,75.2,54.7,30.00,South,180,4.0,9.0,49,0.00,,,0.00,meteohub,2013-06-14 23:12:00,
2013-06-14 18:17:00,74.8,55.0,30.00,West,270,4.0,9.0,50,0.00,,,0.00,meteohub,2013-06-14 23:17:00,
2013-06-14 18:22:00,74.7,54.9,30.00,East,90,4.0,8.0,50,0.00,,,0.00,meteohub,2013-06-14 23:22:00,
2013-06-14 18:27:00,74.5,54.1,30.00,South,180,8.0,8.0,49,0.00,,,0.00,meteohub,2013-06-14 23:27:00,
2013-06-14 18:32:00,74.3,54.5,30.00,South,180,6.0,9.0,50,0.00,,,0.00,meteohub,2013-06-14 23:32:00,
2013-06-14 18:37:00,74.1,54.3,30.00,SE,135,7.0,9.0,50,0.00,,,0.00,meteohub,2013-06-14 23:37:00,
2013-06-14 18:42:00,73.9,54.1,30.01,South,180,5.0,9.0,50,0.00,,,0.00,meteohub,2013-06-14 23:42:00,
2013-06-14 18:47:00,73.8,54.5,30.01,South,180,4.0,8.0,51,0.00,,,0.00,meteohub,2013-06-14 23:47:00,
2013-06-14 18:52:00,73.4,54.1,30.01,South,180,7.0,8.0,51,0.00,,,0.00,meteohub,2013-06-14 23:52:00,
2013-06-14 18:57:00,73.6,54.3,30.01,South,180,4.0,8.0,51,0.00,,,0.00,meteohub,2013-06-14 23:57:00,
2013-06-14 19:02:00,73.6,54.9,30.01,South,180,7.0,7.0,52,0.00,,,0.00,meteohub,2013-06-15 00:02:00,
2013-06-14 19:07:00,73.4,54.7,30.01,South,180,6.0,7.0,52,0.00,,,0.00,meteohub,2013-06-15 00:07:00,
2013-06-14 19:12:00,73.4,54.7,30.02,SE,135,3.0,7.0,52,0.00,,,0.00,meteohub,2013-06-15 00:12:00,
2013-06-14 19:17:00,73.2,55.0,30.02,South,180,3.0,7.0,53,0.00,,,0.00,meteohub,2013-06-15 00:17:00,
2013-06-14 19:22:00,73.0,54.9,30.02,SE,135,4.0,7.0,53,0.00,,,0.00,meteohub,2013-06-15 00:22:00,
2013-06-14 19:27:00,72.9,54.7,30.02,South,180,4.0,7.0,53,0.00,,,0.00,meteohub,2013-06-15 00:27:00,
2013-06-14 19:32:00,72.7,54.5,30.02,SE,135,4.0,5.0,53,0.00,,,0.00,meteohub,2013-06-15 00:32:00,
2013-06-14 19:37:00,72.5,54.9,30.02,SE,135,3.0,7.0,54,0.00,,,0.00,meteohub,2013-06-15 00:37:00,
2013-06-14 19:42:00,72.3,54.7,30.02,South,180,4.0,7.0,54,0.00,,,0.00,meteohub,2013-06-15 00:42:00,
2013-06-14 19:47:00,72.1,55.0,30.02,SW,225,5.0,7.0,55,0.00,,,0.00,meteohub,2013-06-15 00:47:00,
2013-06-14 19:52:00,72.0,54.9,30.02,SW,225,8.0,8.0,55,0.00,,,0.00,meteohub,2013-06-15 00:52:00,
2013-06-14 19:57:00,71.8,54.7,30.02,South,180,6.0,8.0,55,0.00,,,0.00,meteohub,2013-06-15 00:57:00,
2013-06-14 20:02:00,71.6,54.5,30.01,South,180,6.0,8.0,55,0.00,,,0.00,meteohub,2013-06-15 01:02:00,
2013-06-14 20:07:00,71.6,55.0,30.01,South,180,5.0,8.0,56,0.00,,,0.00,meteohub,2013-06-15 01:07:00,
2013-06-14 20:12:00,71.4,54.9,30.01,East,90,4.0,7.0,56,0.00,,,0.00,meteohub,2013-06-15 01:12:00,
2013-06-14 20:17:00,71.2,54.7,30.02,South,180,4.0,6.0,56,0.00,,,0.00,meteohub,2013-06-15 01:17:00,
2013-06-14 20:22:00,71.2,54.7,30.02,SSW,203,4.0,6.0,56,0.00,,,0.00,meteohub,2013-06-15 01:22:00,
2013-06-14 20:27:00,71.1,54.5,30.02,SW,225,3.0,6.0,56,0.00,,,0.00,meteohub,2013-06-15 01:27:00,
2013-06-14 20:32:00,70.9,54.3,30.02,SE,135,4.0,4.0,56,0.00,,,0.00,meteohub,2013-06-15 01:32:00,
2013-06-14 20:37:00,70.9,54.9,30.02,SE,135,4.0,5.0,57,0.00,,,0.00,meteohub,2013-06-15 01:37:00,
2013-06-14 20:42:00,70.5,54.5,30.01,South,180,4.0,5.0,57,0.00,,,0.00,meteohub,2013-06-15 01:42:00,
2013-06-14 20:47:00,70.5,54.5,30.01,East,90,3.0,5.0,57,0.00,,,0.00,meteohub,2013-06-15 01:47:00,
2013-06-14 20:52:00,70.0,54.5,30.01,South,180,4.0,4.0,58,0.00,,,0.00,meteohub,2013-06-15 01:52:00,
2013-06-14 20:57:00,69.8,54.3,30.01,SE,135,4.0,4.0,58,0.00,,,0.00,meteohub,2013-06-15 01:57:00,
2013-06-14 21:02:00,69.6,54.1,30.01,SE,135,5.0,5.0,58,0.00,,,0.00,meteohub,2013-06-15 02:02:00,
2013-06-14 21:07:00,69.8,54.3,30.01,East,90,3.0,6.0,58,0.00,,,0.00,meteohub,2013-06-15 02:07:00,
2013-06-14 21:12:00,69.3,54.3,30.00,South,180,3.0,6.0,59,0.00,,,0.00,meteohub,2013-06-15 02:12:00,
2013-06-14 21:17:00,69.1,54.1,30.00,WNW,293,3.0,6.0,59,0.00,,,0.00,meteohub,2013-06-15 02:17:00,
2013-06-14 21:22:00,68.9,54.0,30.00,NE,45,3.0,4.0,59,0.00,,,0.00,meteohub,2013-06-15 02:22:00,
2013-06-14 21:27:00,68.5,54.1,30.00,East,90,4.0,5.0,60,0.00,,,0.00,meteohub,2013-06-15 02:27:00,
2013-06-14 21:32:00,68.4,54.0,30.01,South,180,3.0,5.0,60,0.00,,,0.00,meteohub,2013-06-15 02:32:00,
2013-06-14 21:37:00,68.2,54.1,30.00,South,180,3.0,4.0,61,0.00,,,0.00,meteohub,2013-06-15 02:37:00,
2013-06-14 21:42:00,67.8,54.0,30.01,South,180,2.0,4.0,61,0.00,,,0.00,meteohub,2013-06-15 02:42:00,
2013-06-14 21:47:00,67.8,54.0,30.00,South,180,6.0,6.0,61,0.00,,,0.00,meteohub,2013-06-15 02:47:00,
2013-06-14 21:52:00,68.0,54.0,30.00,SE,135,2.0,6.0,61,0.00,,,0.00,meteohub,2013-06-15 02:52:00,
2013-06-14 21:57:00,67.8,54.0,30.00,East,90,3.0,6.0,61,0.00,,,0.00,meteohub,2013-06-15 02:57:00,
2013-06-14 22:02:00,67.8,54.0,30.00,SE,135,4.0,6.0,61,0.00,,,0.00,meteohub,2013-06-15 03:02:00,
2013-06-14 22:07:00,67.8,54.0,30.01,SE,135,4.0,4.0,61,0.00,,,0.00,meteohub,2013-06-15 03:07:00,
2013-06-14 22:12:00,67.3,53.8,30.01,SE,135,3.0,4.0,62,0.00,,,0.00,meteohub,2013-06-15 03:12:00,
2013-06-14 22:17:00,67.5,54.0,30.01,South,180,3.0,4.0,62,0.00,,,0.00,meteohub,2013-06-15 03:17:00,
2013-06-14 22:22:00,67.6,54.1,30.00,South,180,7.0,8.0,62,0.00,,,0.00,meteohub,2013-06-15 03:22:00,
2013-06-14 22:27:00,67.8,54.3,30.01,South,180,6.0,8.0,62,0.00,,,0.00,meteohub,2013-06-15 03:27:00,
2013-06-14 22:32:00,67.6,54.1,30.01,SE,135,5.0,7.0,62,0.00,,,0.00,meteohub,2013-06-15 03:32:00,
2013-06-14 22:37:00,67.5,54.5,30.00,ESE,113,4.0,7.0,63,0.00,,,0.00,meteohub,2013-06-15 03:37:00,
2013-06-14 22:42:00,67.3,54.3,30.00,SE,135,5.0,7.0,63,0.00,,,0.00,meteohub,2013-06-15 03:42:00,
2013-06-14 22:47:00,67.3,54.7,30.00,SE,135,6.0,7.0,64,0.00,,,0.00,meteohub,2013-06-15 03:47:00,
2013-06-14 22:52:00,67.3,54.7,30.00,SE,135,3.0,8.0,64,0.00,,,0.00,meteohub,2013-06-15 03:52:00,
2013-06-14 22:57:00,67.1,54.5,30.00,South,180,4.0,8.0,64,0.00,,,0.00,meteohub,2013-06-15 03:57:00,
2013-06-14 23:01:00,67.1,54.5,29.99,SE,135,3.0,8.0,64,0.00,,,0.00,meteohub,2013-06-15 04:01:00,
2013-06-14 23:02:00,67.1,54.5,30.00,SE,135,3.0,8.0,64,0.00,,,0.00,meteohub,2013-06-15 04:02:00,
2013-06-14 23:05:00,67.1,54.5,29.99,SE,135,3.0,8.0,64,0.00,,,0.00,meteohub,2013-06-15 04:05:00,
2013-06-14 23:10:00,66.4,54.7,30.00,SE,135,5.0,8.0,66,0.00,,,0.00,meteohub,2013-06-15 04:10:00,
2013-06-14 23:15:00,65.8,54.5,30.00,SE,135,4.0,6.0,67,0.00,,,0.00,meteohub,2013-06-15 04:15:00,
2013-06-14 23:20:00,65.3,54.5,30.00,SE,135,8.0,10.0,68,0.00,,,0.00,meteohub,2013-06-15 04:20:00,
2013-06-14 23:25:00,65.1,54.7,30.00,SE,135,8.0,10.0,69,0.00,,,0.00,meteohub,2013-06-15 04:25:00,
2013-06-14 23:30:00,64.9,54.5,30.00,SE,135,8.0,10.0,69,0.00,,,0.00,meteohub,2013-06-15 04:30:00,
2013-06-14 23:35:00,64.9,54.5,30.00,South,180,8.0,11.0,69,0.00,,,0.00,meteohub,2013-06-15 04:35:00,
2013-06-14 23:40:00,64.9,54.1,30.00,NNE,23,8.0,11.0,68,0.00,,,0.00,meteohub,2013-06-15 04:40:00,
2013-06-14 23:45:00,64.8,54.0,30.01,SE,135,6.0,11.0,68,0.00,,,0.00,meteohub,2013-06-15 04:45:00,
2013-06-14 23:50:00,64.6,53.8,30.01,SE,135,6.0,10.0,68,0.00,,,0.00,meteohub,2013-06-15 04:50:00,
2013-06-14 23:56:00,64.4,53.6,30.01,SE,135,8.0,10.0,68,0.00,,,0.00,meteohub,2013-06-15 04:56:00,